Time;durP1;ratioP1;P1;durP2;ratioP2;P2;SDS_P1;SDS_P2;PMS_P1;PMS_P2;Temp;Humidity;BMP_temperature;BMP_pressure;BME280_temperature;BME280_humidity;BME280_pressure;Samples;Min_cycle;Max_cycle;Signal;HPM_P1;HPM_P2
2021/11/10 00:01:45;;;;;;;;;;;8.10;53.60;;;;;;5010417;28;19927;-68
2021/11/10 00:04:11;;;;;;;;;;;8.10;53.70;;;;;;5010393;28;20333;-68
2021/11/10 00:06:36;;;;;;;;;;;8.10;53.80;;;;;;5010279;28;19909;-68
2021/11/10 00:09:05;;;;;;;;;;;8.00;53.80;;;;;;5009742;28;19914;-68
2021/11/10 00:11:31;;;;;;;;;;;8.00;53.80;;;;;;5010069;28;19972;-68
2021/11/10 00:13:57;;;;;;;;;;;8.00;53.80;;;;;;5009878;28;20005;-68
2021/11/10 00:16:23;;;;;;;;;;;8.00;53.90;;;;;;5010271;28;19909;-68
2021/11/10 00:18:51;;;;;;;;;;;7.90;53.90;;;;;;5016845;28;19948;-68
2021/11/10 00:21:19;;;;;;;;;;;7.90;54.00;;;;;;5013370;28;20124;-68
2021/11/10 00:23:45;;;;;;;;;;;7.90;54.10;;;;;;5029902;28;20402;-68
2021/11/10 00:26:10;;;;;;;;;;;7.80;54.10;;;;;;5021155;28;19914;-68
2021/11/10 00:28:36;;;;;;;;;;;7.80;54.20;;;;;;5012460;28;20303;-68
2021/11/10 00:31:02;;;;;;;;;;;7.80;54.40;;;;;;5009991;28;19996;-68
2021/11/10 00:33:28;;;;;;;;;;;7.80;54.40;;;;;;5065614;28;19916;-69
2021/11/10 00:35:54;;;;;;;;;;;7.80;54.50;;;;;;5072518;28;19931;-69
2021/11/10 00:38:19;;;;;;;;;;;7.80;54.70;;;;;;5073624;28;20373;-68
2021/11/10 00:40:45;;;;;;;;;;;7.80;54.80;;;;;;5082398;28;19920;-68
2021/11/10 00:43:11;;;;;;;;;;;7.70;54.70;;;;;;5071856;28;19915;-68
2021/11/10 00:45:37;;;;;;;;;;;7.70;54.70;;;;;;5071750;28;20327;-68
2021/11/10 00:48:03;;;;;;;;;;;7.70;54.70;;;;;;5075229;28;20415;-68
2021/11/10 00:50:29;;;;;;;;;;;7.70;54.80;;;;;;5091847;28;19953;-68
2021/11/10 00:52:54;;;;;;;;;;;7.60;54.70;;;;;;5091838;28;20285;-68
2021/11/10 00:55:20;;;;;;;;;;;7.60;54.70;;;;;;5091840;28;19908;-68
2021/11/10 00:57:45;;;;;;;;;;;7.60;54.70;;;;;;5090298;28;19912;-68
2021/11/10 01:00:11;;;;;;;;;;;7.50;54.70;;;;;;5071201;28;19944;-68
2021/11/10 01:02:37;;;;;;;;;;;7.50;54.70;;;;;;5075617;28;20502;-67
2021/11/10 01:05:03;;;;;;;;;;;7.50;54.70;;;;;;5075391;28;19912;-66
2021/11/10 01:07:29;;;;;;;;;;;7.50;54.70;;;;;;5072052;28;20003;-68
2021/11/10 01:10:00;;;;;;;;;;;7.40;54.80;;;;;;5092930;28;19912;-68
2021/11/10 01:12:25;;;;;;;;;;;7.30;54.80;;;;;;5094488;28;19915;-68
2021/11/10 01:14:51;;;;;;;;;;;7.40;54.90;;;;;;5095175;28;19920;-68
2021/11/10 01:17:17;;;;;;;;;;;7.30;54.90;;;;;;5095357;28;20426;-68
2021/11/10 01:19:42;;;;;;;;;;;7.30;54.90;;;;;;5078054;28;19916;-68
2021/11/10 01:22:08;;;;;;;;;;;7.30;55.00;;;;;;5075103;28;19908;-68
2021/11/10 01:24:34;;;;;;;;;;;7.20;55.00;;;;;;5075150;28;19961;-68
2021/11/10 01:27:00;;;;;;;;;;;7.20;55.10;;;;;;5075133;28;20274;-68
2021/11/10 01:29:25;;;;;;;;;;;7.20;55.10;;;;;;5089022;28;19912;-68
2021/11/10 01:31:51;;;;;;;;;;;7.20;55.10;;;;;;5064454;28;19916;-68
2021/11/10 01:34:17;;;;;;;;;;;7.10;55.20;;;;;;5054776;28;19913;-68
2021/11/10 01:36:43;;;;;;;;;;;7.10;55.30;;;;;;5054937;28;19948;-68
2021/11/10 01:39:08;;;;;;;;;;;7.10;55.30;;;;;;5078334;28;19959;-68
2021/11/10 01:41:43;;;;;;;;;;;7.10;55.30;;;;;;5095143;28;19908;-68
2021/11/10 01:44:15;;;;;;;;;;;7.00;55.30;;;;;;5095082;28;20339;-68
2021/11/10 01:46:41;;;;;;;;;;;7.00;55.30;;;;;;5083243;28;19919;-67
2021/11/10 01:49:07;;;;;;;;;;;7.00;55.40;;;;;;5085768;28;19912;-67
2021/11/10 01:51:32;;;;;;;;;;;7.00;55.50;;;;;;5095031;28;19927;-68
2021/11/10 01:53:58;;;;;;;;;;;7.00;55.50;;;;;;5094634;28;20264;-67
2021/11/10 01:56:24;;;;;;;;;;;6.90;55.40;;;;;;5094518;28;19912;-68
2021/11/10 01:58:50;;;;;;;;;;;6.90;55.40;;;;;;5085655;28;20003;-67
2021/11/10 02:01:15;;;;;;;;;;;6.90;55.60;;;;;;5074145;28;20332;-68
2021/11/10 02:03:41;;;;;;;;;;;6.90;55.50;;;;;;5074079;28;19908;-67
2021/11/10 02:06:07;;;;;;;;;;;6.80;55.50;;;;;;5074093;28;19915;-68
2021/11/10 02:08:32;;;;;;;;;;;6.80;55.50;;;;;;5079530;28;19924;-67
2021/11/10 02:10:58;;;;;;;;;;;6.80;55.60;;;;;;5094061;28;19954;-67
2021/11/10 02:13:24;;;;;;;;;;;6.80;55.70;;;;;;5093770;28;19948;-68
2021/11/10 02:15:50;;;;;;;;;;;6.80;55.70;;;;;;5092770;28;19955;-67
2021/11/10 02:18:15;;;;;;;;;;;6.80;55.80;;;;;;5092238;28;20304;-68
2021/11/10 02:20:41;;;;;;;;;;;6.70;56.30;;;;;;5094038;28;19908;-68
2021/11/10 02:23:08;;;;;;;;;;;6.70;55.80;;;;;;5093910;28;20281;-67
2021/11/10 02:25:33;;;;;;;;;;;6.70;55.80;;;;;;5093868;28;19976;-67
2021/11/10 02:27:59;;;;;;;;;;;6.70;55.80;;;;;;5088715;28;19916;-67
2021/11/10 02:30:26;;;;;;;;;;;6.70;55.80;;;;;;5082151;28;20023;-68
2021/11/10 02:32:52;;;;;;;;;;;6.60;55.80;;;;;;5093930;28;20361;-67
2021/11/10 02:35:19;;;;;;;;;;;6.60;55.90;;;;;;5093391;28;19916;-67
2021/11/10 02:37:57;;;;;;;;;;;6.60;56.00;;;;;;5093837;28;19996;-67
2021/11/10 02:40:23;;;;;;;;;;;6.50;56.00;;;;;;5085018;28;19962;-67
2021/11/10 02:42:52;;;;;;;;;;;6.50;56.00;;;;;;5073553;28;19970;-67
2021/11/10 02:45:18;;;;;;;;;;;6.50;56.00;;;;;;5073489;28;19916;-67
2021/11/10 02:47:44;;;;;;;;;;;6.50;55.70;;;;;;5055862;28;19912;-67
2021/11/10 02:50:10;;;;;;;;;;;6.50;56.10;;;;;;5065399;28;19916;-67
2021/11/10 02:52:36;;;;;;;;;;;6.50;56.20;;;;;;5070185;28;19916;-67
2021/11/10 02:55:02;;;;;;;;;;;6.40;56.10;;;;;;5051844;28;19919;-67
2021/11/10 02:57:28;;;;;;;;;;;6.40;56.20;;;;;;5052120;28;19916;-67
2021/11/10 02:59:54;;;;;;;;;;;6.40;56.20;;;;;;5059833;28;19912;-67
2021/11/10 03:02:26;;;;;;;;;;;6.40;56.30;;;;;;5091595;28;19962;-67
2021/11/10 03:04:52;;;;;;;;;;;6.30;56.30;;;;;;5093289;28;19958;-67
2021/11/10 03:07:18;;;;;;;;;;;6.30;56.30;;;;;;5093343;28;19912;-67
2021/11/10 03:09:43;;;;;;;;;;;6.30;56.40;;;;;;5091542;28;19914;-67
2021/11/10 03:12:10;;;;;;;;;;;6.30;56.40;;;;;;5072909;28;19908;-67
2021/11/10 03:14:36;;;;;;;;;;;6.30;56.50;;;;;;5072486;28;19982;-68
2021/11/10 03:17:03;;;;;;;;;;;6.30;56.50;;;;;;5072714;28;19908;-68
2021/11/10 03:19:29;;;;;;;;;;;6.30;56.50;;;;;;5072659;28;19995;-67
2021/11/10 03:21:55;;;;;;;;;;;6.20;56.40;;;;;;5092062;28;20011;-67
2021/11/10 03:24:20;;;;;;;;;;;6.20;56.50;;;;;;5092316;28;19908;-67
2021/11/10 03:26:46;;;;;;;;;;;6.20;56.70;;;;;;5092762;28;19908;-67
2021/11/10 03:29:11;;;;;;;;;;;6.20;56.70;;;;;;5059531;28;20362;-67
2021/11/10 03:31:38;;;;;;;;;;;6.20;56.80;;;;;;5086142;28;19916;-67
2021/11/10 03:34:04;;;;;;;;;;;6.20;56.90;;;;;;5092608;28;19998;-67
2021/11/10 03:36:30;;;;;;;;;;;6.20;57.00;;;;;;5092626;28;19999;-67
2021/11/10 03:38:55;;;;;;;;;;;6.10;56.90;;;;;;5092680;28;20002;-67
2021/11/10 03:41:21;;;;;;;;;;;6.10;57.00;;;;;;5077761;28;19913;-67
2021/11/10 03:43:51;;;;;;;;;;;6.10;57.00;;;;;;5072302;28;19908;-67
2021/11/10 03:46:17;;;;;;;;;;;6.10;57.00;;;;;;5072272;28;19909;-67
2021/11/10 03:48:42;;;;;;;;;;;6.10;57.00;;;;;;5072086;28;19916;-67
2021/11/10 03:51:09;;;;;;;;;;;6.10;57.00;;;;;;5084136;28;19919;-67
2021/11/10 03:53:35;;;;;;;;;;;6.10;57.10;;;;;;5057097;28;20322;-67
2021/11/10 03:56:02;;;;;;;;;;;6.10;57.10;;;;;;5052193;28;20010;-68
2021/11/10 03:58:28;;;;;;;;;;;6.10;57.20;;;;;;5052096;28;19905;-68
2021/11/10 04:00:53;;;;;;;;;;;6.10;57.20;;;;;;5062305;28;19923;-68
2021/11/10 04:03:19;;;;;;;;;;;6.10;57.20;;;;;;5072050;28;20001;-68
2021/11/10 04:05:45;;;;;;;;;;;6.10;57.20;;;;;;5070786;28;19922;-68
2021/11/10 04:08:11;;;;;;;;;;;6.10;57.20;;;;;;5071921;28;19996;-67
2021/11/10 04:10:37;;;;;;;;;;;6.10;57.30;;;;;;5078814;28;20062;-68
2021/11/10 04:13:04;;;;;;;;;;;6.10;57.30;;;;;;5091864;28;20443;-68
2021/11/10 04:15:30;;;;;;;;;;;6.10;57.40;;;;;;5092141;28;19947;-68
2021/11/10 04:17:56;;;;;;;;;;;6.10;57.40;;;;;;5092175;28;19923;-68
2021/11/10 04:20:21;;;;;;;;;;;6.10;57.40;;;;;;5087357;28;19913;-68
2021/11/10 04:22:47;;;;;;;;;;;6.10;57.40;;;;;;5071993;28;20340;-67
2021/11/10 04:25:12;;;;;;;;;;;6.10;57.40;;;;;;5071975;28;19960;-67
2021/11/10 04:27:38;;;;;;;;;;;6.10;57.40;;;;;;5071795;28;19912;-67
2021/11/10 04:30:04;;;;;;;;;;;6.10;57.50;;;;;;5073359;28;19916;-67
2021/11/10 04:32:30;;;;;;;;;;;6.10;57.50;;;;;;5091752;28;19952;-67
2021/11/10 04:34:55;;;;;;;;;;;6.10;57.60;;;;;;5092334;28;19951;-67
2021/11/10 04:37:22;;;;;;;;;;;6.10;57.50;;;;;;5096125;28;19968;-67
2021/11/10 04:39:47;;;;;;;;;;;6.10;57.50;;;;;;5096074;28;20037;-67
2021/11/10 04:42:14;;;;;;;;;;;6.10;57.50;;;;;;5076168;28;19912;-67
2021/11/10 04:44:39;;;;;;;;;;;6.10;57.50;;;;;;5075659;28;20366;-67
2021/11/10 04:47:05;;;;;;;;;;;6.10;57.50;;;;;;5075651;28;19909;-67
2021/11/10 04:49:31;;;;;;;;;;;6.10;57.50;;;;;;5058738;28;19947;-68
2021/11/10 04:52:01;;;;;;;;;;;6.10;57.60;;;;;;5089900;28;20013;-68
2021/11/10 04:54:30;;;;;;;;;;;6.20;57.70;;;;;;5094354;28;20388;-67
2021/11/10 04:57:00;;;;;;;;;;;6.20;57.70;;;;;;5095594;28;19958;-67
2021/11/10 04:59:25;;;;;;;;;;;6.20;57.70;;;;;;5095688;28;20002;-67
2021/11/10 05:04:32;;;;;;;;;;;6.20;57.70;;;;;;5075546;28;19951;-67
2021/11/10 05:06:58;;;;;;;;;;;6.20;57.70;;;;;;5075102;28;19958;-67
2021/11/10 05:09:24;;;;;;;;;;;6.20;57.70;;;;;;5075383;28;19943;-68
2021/11/10 05:11:49;;;;;;;;;;;6.20;57.60;;;;;;5090529;28;19973;-68
2021/11/10 05:14:15;;;;;;;;;;;6.20;57.70;;;;;;5095786;28;20300;-68
2021/11/10 05:16:41;;;;;;;;;;;6.20;58.30;;;;;;5096289;28;19912;-68
2021/11/10 05:19:07;;;;;;;;;;;6.20;57.70;;;;;;5096499;28;19912;-68
2021/11/10 05:21:33;;;;;;;;;;;6.20;57.80;;;;;;5082765;28;20007;-68
2021/11/10 05:23:59;;;;;;;;;;;6.20;57.70;;;;;;5075867;28;20005;-67
2021/11/10 05:26:24;;;;;;;;;;;6.20;57.80;;;;;;5075762;28;19999;-67
2021/11/10 05:28:50;;;;;;;;;;;6.20;57.80;;;;;;5075545;28;20353;-68
2021/11/10 05:31:17;;;;;;;;;;;6.20;57.80;;;;;;5085616;28;19912;-67
2021/11/10 05:33:42;;;;;;;;;;;6.30;58.00;;;;;;5095582;28;20006;-67
2021/11/10 05:36:08;;;;;;;;;;;6.30;58.10;;;;;;5095794;28;20362;-67
2021/11/10 05:38:34;;;;;;;;;;;6.30;58.00;;;;;;5095863;28;19915;-67
2021/11/10 05:41:00;;;;;;;;;;;6.30;58.10;;;;;;5087746;28;19916;-67
2021/11/10 05:43:25;;;;;;;;;;;6.30;58.10;;;;;;5075614;28;19995;-67
2021/11/10 05:45:51;;;;;;;;;;;6.30;58.20;;;;;;5074989;28;19909;-68
2021/11/10 05:48:17;;;;;;;;;;;6.30;58.20;;;;;;5075382;28;19908;-68
2021/11/10 05:50:43;;;;;;;;;;;6.30;58.30;;;;;;5079894;28;19994;-68
2021/11/10 05:53:09;;;;;;;;;;;6.30;58.30;;;;;;5095801;28;19915;-68
2021/11/10 05:55:35;;;;;;;;;;;6.30;58.30;;;;;;5094333;28;19908;-68
2021/11/10 05:58:01;;;;;;;;;;;6.30;58.30;;;;;;5094235;28;19954;-68
2021/11/10 06:00:27;;;;;;;;;;;6.30;58.40;;;;;;5092729;28;19925;-67
2021/11/10 06:02:53;;;;;;;;;;;6.30;58.40;;;;;;5075171;28;19932;-67
2021/11/10 06:05:19;;;;;;;;;;;6.30;58.40;;;;;;5073677;28;19908;-67
2021/11/10 06:07:45;;;;;;;;;;;6.30;58.40;;;;;;5074868;28;19916;-67
2021/11/10 06:10:11;;;;;;;;;;;6.30;58.50;;;;;;5074866;28;19957;-68
2021/11/10 06:12:37;;;;;;;;;;;6.30;58.50;;;;;;5095074;28;19912;-68
2021/11/10 06:15:06;;;;;;;;;;;6.40;58.60;;;;;;5094565;28;19943;-69
2021/11/10 06:17:32;;;;;;;;;;;6.40;58.50;;;;;;5095053;28;19915;-69
2021/11/10 06:20:01;;;;;;;;;;;6.40;58.50;;;;;;5094951;28;19909;-68
2021/11/10 06:22:26;;;;;;;;;;;6.40;58.60;;;;;;5075976;28;19923;-68
2021/11/10 06:24:52;;;;;;;;;;;6.40;58.60;;;;;;5074547;28;19999;-69
2021/11/10 06:27:18;;;;;;;;;;;6.50;58.80;;;;;;5074713;28;19970;-68
2021/11/10 06:29:44;;;;;;;;;;;6.50;58.80;;;;;;5074682;28;19917;-69
2021/11/10 06:32:09;;;;;;;;;;;6.50;58.80;;;;;;5090021;28;19918;-68
2021/11/10 06:34:35;;;;;;;;;;;6.60;58.80;;;;;;5094310;28;20018;-68
2021/11/10 06:37:01;;;;;;;;;;;6.60;58.80;;;;;;5094759;28;19914;-68
2021/11/10 06:39:27;;;;;;;;;;;6.70;58.90;;;;;;5094697;28;19966;-69
2021/11/10 06:41:52;;;;;;;;;;;6.70;58.90;;;;;;5077315;28;20328;-66
2021/11/10 06:44:18;;;;;;;;;;;6.80;59.00;;;;;;5074239;28;19908;-67
2021/11/10 06:46:43;;;;;;;;;;;6.80;58.90;;;;;;5073025;28;19908;-67
2021/11/10 06:49:09;;;;;;;;;;;6.90;59.00;;;;;;5075005;28;20258;-67
2021/11/10 06:51:35;;;;;;;;;;;6.90;59.00;;;;;;5074100;28;19916;-67
2021/11/10 06:54:00;;;;;;;;;;;7.00;59.00;;;;;;5074066;28;20281;-68
2021/11/10 06:56:26;;;;;;;;;;;7.00;59.00;;;;;;5073970;28;19919;-68
2021/11/10 06:58:52;;;;;;;;;;;7.10;59.00;;;;;;5076273;28;19982;-68
2021/11/10 07:01:17;;;;;;;;;;;7.10;59.00;;;;;;5092674;28;19908;-68
2021/11/10 07:03:43;;;;;;;;;;;7.20;59.10;;;;;;5094100;28;19912;-67
2021/11/10 07:06:09;;;;;;;;;;;7.30;59.10;;;;;;5094174;28;20276;-67
2021/11/10 07:08:34;;;;;;;;;;;7.30;59.10;;;;;;5092811;28;19912;-67
2021/11/10 07:11:00;;;;;;;;;;;7.40;59.10;;;;;;5072529;28;19985;-67
2021/11/10 07:13:26;;;;;;;;;;;7.50;59.10;;;;;;5073390;28;20344;-67
2021/11/10 07:15:52;;;;;;;;;;;7.60;59.10;;;;;;5072499;28;19908;-67
2021/11/10 07:18:17;;;;;;;;;;;7.70;59.10;;;;;;5073716;28;19909;-67
2021/11/10 07:20:43;;;;;;;;;;;7.70;59.00;;;;;;5091915;28;19916;-68
2021/11/10 07:23:08;;;;;;;;;;;7.80;58.90;;;;;;5067451;28;20000;-67
2021/11/10 07:25:34;;;;;;;;;;;7.90;58.90;;;;;;5053640;28;19915;-67
2021/11/10 07:28:03;;;;;;;;;;;8.00;58.90;;;;;;5053536;28;19916;-68
2021/11/10 07:30:29;;;;;;;;;;;8.00;58.90;;;;;;5085048;28;19959;-68
2021/11/10 07:32:54;;;;;;;;;;;8.10;58.90;;;;;;5093571;28;20389;-68
2021/11/10 07:35:20;;;;;;;;;;;8.20;58.80;;;;;;5093571;28;19919;-68
2021/11/10 07:37:47;;;;;;;;;;;8.30;58.60;;;;;;5091829;28;20293;-67
2021/11/10 07:40:15;;;;;;;;;;;8.40;58.50;;;;;;5093266;28;20321;-68
2021/11/10 07:42:42;;;;;;;;;;;8.40;58.40;;;;;;5093585;28;19931;-68
2021/11/10 07:45:20;;;;;;;;;;;8.50;58.40;;;;;;5093566;28;19908;-68
2021/11/10 07:47:46;;;;;;;;;;;8.50;58.30;;;;;;5085172;28;19958;-68
2021/11/10 07:50:14;;;;;;;;;;;8.60;58.20;;;;;;5073127;28;19909;-68
2021/11/10 07:52:40;;;;;;;;;;;8.70;58.20;;;;;;5073215;28;20001;-67
2021/11/10 07:55:06;;;;;;;;;;;8.80;58.10;;;;;;5073089;28;19913;-69
2021/11/10 07:57:33;;;;;;;;;;;8.90;58.00;;;;;;5075790;28;19912;-67
2021/11/10 07:59:59;;;;;;;;;;;9.00;58.00;;;;;;5093335;28;19904;-68
2021/11/10 08:02:25;;;;;;;;;;;9.00;57.90;;;;;;5093065;28;19908;-68
2021/11/10 08:04:51;;;;;;;;;;;9.10;57.90;;;;;;5091759;28;19908;-68
2021/11/10 08:07:16;;;;;;;;;;;9.20;57.80;;;;;;5090970;28;20434;-68
2021/11/10 08:09:42;;;;;;;;;;;9.30;57.80;;;;;;5072718;28;20002;-68
2021/11/10 08:12:08;;;;;;;;;;;9.40;57.70;;;;;;5072897;28;19905;-68
2021/11/10 08:14:33;;;;;;;;;;;9.50;57.60;;;;;;5072398;28;19925;-68
2021/11/10 08:16:59;;;;;;;;;;;9.60;57.40;;;;;;5072938;28;19951;-68
2021/11/10 08:19:25;;;;;;;;;;;9.60;57.20;;;;;;5092007;28;19912;-68
2021/11/10 08:21:51;;;;;;;;;;;9.70;57.10;;;;;;5063717;28;19909;-68
2021/11/10 08:24:16;;;;;;;;;;;9.70;56.90;;;;;;5052848;28;20385;-68
2021/11/10 08:26:42;;;;;;;;;;;9.80;57.00;;;;;;5053579;28;19997;-67
2021/11/10 08:29:08;;;;;;;;;;;9.90;56.80;;;;;;5086511;28;20396;-67
2021/11/10 08:31:33;;;;;;;;;;;9.90;56.60;;;;;;5092873;28;19915;-67
2021/11/10 08:33:59;;;;;;;;;;;10.00;56.40;;;;;;5092800;28;19920;-68
2021/11/10 08:36:26;;;;;;;;;;;10.00;56.30;;;;;;5092611;28;19969;-67
2021/11/10 08:38:53;;;;;;;;;;;10.10;56.30;;;;;;5077660;28;20015;-69
2021/11/10 08:41:20;;;;;;;;;;;10.10;56.30;;;;;;5072306;28;19919;-68
2021/11/10 08:43:46;;;;;;;;;;;10.20;56.30;;;;;;5072498;28;19908;-68
2021/11/10 08:46:12;;;;;;;;;;;10.30;56.30;;;;;;5072388;28;19915;-68
2021/11/10 08:48:38;;;;;;;;;;;10.40;56.30;;;;;;5084451;28;20296;-68
2021/11/10 08:51:03;;;;;;;;;;;10.40;56.10;;;;;;5092550;28;20292;-68
2021/11/10 08:53:29;;;;;;;;;;;10.50;56.00;;;;;;5092715;28;19956;-67
2021/11/10 08:55:56;;;;;;;;;;;10.60;56.00;;;;;;5092754;28;19909;-69
2021/11/10 08:58:22;;;;;;;;;;;10.70;56.00;;;;;;5081284;28;19919;-67
2021/11/10 09:00:48;;;;;;;;;;;10.80;56.00;;;;;;5072507;28;19909;-67
2021/11/10 09:03:14;;;;;;;;;;;10.90;56.00;;;;;;5072247;28;19908;-67
2021/11/10 09:05:40;;;;;;;;;;;11.00;56.00;;;;;;5064425;28;19939;-68
2021/11/10 09:08:06;;;;;;;;;;;11.10;55.90;;;;;;5066255;28;20347;-68
2021/11/10 09:10:34;;;;;;;;;;;11.20;55.90;;;;;;5091595;28;19987;-68
2021/11/10 09:13:01;;;;;;;;;;;11.30;55.80;;;;;;5090987;28;19912;-67
2021/11/10 09:15:27;;;;;;;;;;;11.30;55.40;;;;;;5092464;28;19938;-68
2021/11/10 09:17:53;;;;;;;;;;;11.40;55.30;;;;;;5087131;28;20362;-69
2021/11/10 09:20:23;;;;;;;;;;;11.50;55.10;;;;;;5072064;28;19951;-69
2021/11/10 09:22:49;;;;;;;;;;;11.60;55.10;;;;;;5075387;28;19916;-69
2021/11/10 09:25:16;;;;;;;;;;;11.60;55.00;;;;;;5075739;28;19931;-69
2021/11/10 09:27:41;;;;;;;;;;;11.70;54.90;;;;;;5078203;28;19913;-69
2021/11/10 09:30:09;;;;;;;;;;;11.70;54.90;;;;;;5095955;28;19908;-68
2021/11/10 09:32:35;;;;;;;;;;;11.80;54.80;;;;;;5095925;28;19934;-69
2021/11/10 09:35:01;;;;;;;;;;;11.90;54.70;;;;;;5095843;28;20274;-69
2021/11/10 09:37:27;;;;;;;;;;;11.90;54.60;;;;;;5095127;28;19908;-69
2021/11/10 09:39:53;;;;;;;;;;;12.00;54.70;;;;;;5075332;28;19912;-69
2021/11/10 09:42:21;;;;;;;;;;;12.10;54.50;;;;;;5075550;28;20398;-69
2021/11/10 09:44:48;;;;;;;;;;;12.20;54.30;;;;;;5074128;28;19916;-69
2021/11/10 09:47:14;;;;;;;;;;;12.20;54.00;;;;;;5075298;28;20057;-69
2021/11/10 09:49:39;;;;;;;;;;;12.30;53.80;;;;;;5093403;28;20393;-69
2021/11/10 09:52:05;;;;;;;;;;;12.40;53.70;;;;;;5095613;28;19908;-69
2021/11/10 09:54:30;;;;;;;;;;;12.40;53.30;;;;;;5095534;28;19912;-69
2021/11/10 09:56:56;;;;;;;;;;;12.40;53.30;;;;;;5095600;28;19930;-69
2021/11/10 09:59:23;;;;;;;;;;;12.50;53.40;;;;;;5079435;28;20251;-69
2021/11/10 10:01:49;;;;;;;;;;;12.60;53.40;;;;;;5075235;28;19915;-69
2021/11/10 10:04:15;;;;;;;;;;;12.70;53.40;;;;;;5075082;28;20000;-69
2021/11/10 10:06:41;;;;;;;;;;;12.70;53.20;;;;;;5073950;28;20055;-68
2021/11/10 10:09:08;;;;;;;;;;;12.80;52.90;;;;;;5092669;28;19912;-68
2021/11/10 10:11:34;;;;;;;;;;;12.80;52.70;;;;;;5095377;28;19908;-68
2021/11/10 10:14:00;;;;;;;;;;;12.80;52.80;;;;;;5094859;28;19969;-68
2021/11/10 10:16:27;;;;;;;;;;;12.90;52.70;;;;;;5095064;28;19916;-69
2021/11/10 10:19:12;;;;;;;;;;;12.90;52.40;;;;;;5078006;28;19913;-69
2021/11/10 10:21:40;;;;;;;;;;;12.90;52.30;;;;;;5074706;28;19947;-69
2021/11/10 10:24:06;;;;;;;;;;;13.00;52.30;;;;;;5074754;28;19908;-69
2021/11/10 10:26:32;;;;;;;;;;;13.00;52.50;;;;;;5074610;28;19909;-69
2021/11/10 10:29:08;;;;;;;;;;;13.00;52.60;;;;;;5089776;28;20270;-69
2021/11/10 10:31:34;;;;;;;;;;;13.00;52.40;;;;;;5093477;28;19908;-69
2021/11/10 10:34:04;;;;;;;;;;;13.10;52.20;;;;;;5094649;28;20377;-69
2021/11/10 10:36:33;;;;;;;;;;;13.10;52.10;;;;;;5094733;28;19917;-68
2021/11/10 10:39:04;;;;;;;;;;;13.10;52.60;;;;;;5078666;28;19912;-68
2021/11/10 10:41:31;;;;;;;;;;;13.10;51.90;;;;;;5071788;28;19957;-68
2021/11/10 10:44:02;;;;;;;;;;;13.10;51.80;;;;;;5074316;28;20368;-69
2021/11/10 10:46:28;;;;;;;;;;;13.20;51.90;;;;;;5073018;28;20014;-68
2021/11/10 10:49:12;;;;;;;;;;;13.20;51.80;;;;;;5087750;28;19912;-68
2021/11/10 10:51:38;;;;;;;;;;;13.20;51.80;;;;;;5094536;28;20535;-69
2021/11/10 10:54:09;;;;;;;;;;;13.20;51.70;;;;;;5094321;28;20003;-69
2021/11/10 10:56:36;;;;;;;;;;;13.20;51.60;;;;;;5094338;28;19942;-68
2021/11/10 10:59:06;;;;;;;;;;;13.20;51.50;;;;;;5078712;28;19959;-68
2021/11/10 11:01:33;;;;;;;;;;;13.30;51.50;;;;;;5074042;28;19915;-69
2021/11/10 11:04:00;;;;;;;;;;;13.30;51.40;;;;;;5072720;28;19912;-69
2021/11/10 11:06:31;;;;;;;;;;;13.30;51.40;;;;;;5073909;28;20008;-69
2021/11/10 11:08:58;;;;;;;;;;;13.30;51.20;;;;;;5087718;28;19913;-68
2021/11/10 11:11:36;;;;;;;;;;;13.40;51.20;;;;;;5066969;28;19943;-68
2021/11/10 11:14:01;;;;;;;;;;;13.40;51.20;;;;;;5071686;28;19920;-69
2021/11/10 11:16:35;;;;;;;;;;;13.40;51.40;;;;;;5071566;28;20373;-69
2021/11/10 11:19:11;;;;;;;;;;;13.50;51.40;;;;;;5072974;28;19916;-68
2021/11/10 11:21:46;;;;;;;;;;;13.50;51.30;;;;;;5073043;28;19935;-69
2021/11/10 11:24:24;;;;;;;;;;;13.60;51.40;;;;;;5072832;28;19908;-68
2021/11/10 11:26:50;;;;;;;;;;;13.60;51.40;;;;;;5069449;28;19959;-69
2021/11/10 11:29:17;;;;;;;;;;;13.70;51.40;;;;;;5072617;28;19970;-69
2021/11/10 11:31:43;;;;;;;;;;;13.70;51.20;;;;;;5072201;28;19908;-69
2021/11/10 11:34:08;;;;;;;;;;;13.80;51.30;;;;;;5072367;28;19917;-69
2021/11/10 11:36:53;;;;;;;;;;;13.90;51.30;;;;;;5090447;28;19958;-69
2021/11/10 11:39:20;;;;;;;;;;;13.90;51.10;;;;;;5092659;28;19994;-69
2021/11/10 11:41:45;;;;;;;;;;;14.00;51.00;;;;;;5078871;28;19915;-69
2021/11/10 11:44:11;;;;;;;;;;;14.00;50.90;;;;;;5089070;28;19912;-69
2021/11/10 11:46:43;;;;;;;;;;;14.10;51.00;;;;;;5092686;28;19909;-69
2021/11/10 11:49:08;;;;;;;;;;;14.10;50.70;;;;;;5090937;28;19988;-69
2021/11/10 11:51:35;;;;;;;;;;;14.10;50.50;;;;;;5092584;28;19965;-69
2021/11/10 11:54:01;;;;;;;;;;;14.20;50.50;;;;;;5092395;28;19939;-69
2021/11/10 11:56:27;;;;;;;;;;;14.20;50.30;;;;;;5092496;28;19908;-69
2021/11/10 11:58:54;;;;;;;;;;;14.20;50.30;;;;;;5080538;28;20006;-69
2021/11/10 12:01:25;;;;;;;;;;;14.20;50.20;;;;;;5072192;28;19914;-69
2021/11/10 12:03:52;;;;;;;;;;;14.30;50.10;;;;;;5072212;28;20257;-69
2021/11/10 12:06:19;;;;;;;;;;;14.30;49.90;;;;;;5072269;28;20271;-69
2021/11/10 12:08:48;;;;;;;;;;;14.30;49.60;;;;;;5066623;28;19967;-69
2021/11/10 12:11:23;;;;;;;;;;;14.30;49.70;;;;;;5086547;28;19919;-69
2021/11/10 12:14:04;;;;;;;;;;;14.40;49.80;;;;;;5071765;28;20006;-69
2021/11/10 12:16:45;;;;;;;;;;;14.40;49.60;;;;;;5072017;28;20385;-69
2021/11/10 12:19:17;;;;;;;;;;;14.40;49.50;;;;;;5062596;28;19913;-69
2021/11/10 12:22:08;;;;;;;;;;;14.50;49.50;;;;;;5078056;28;20358;-69
2021/11/10 12:24:51;;;;;;;;;;;14.50;49.60;;;;;;5074309;28;19916;-69
2021/11/10 12:27:20;;;;;;;;;;;14.60;49.70;;;;;;5092973;28;19908;-69
2021/11/10 12:29:45;;;;;;;;;;;14.60;49.50;;;;;;5092974;28;19908;-69
2021/11/10 12:32:11;;;;;;;;;;;14.60;49.50;;;;;;5092923;28;19999;-69
2021/11/10 12:34:37;;;;;;;;;;;14.70;49.60;;;;;;5092852;28;19912;-69
2021/11/10 12:37:04;;;;;;;;;;;14.70;49.50;;;;;;5092803;28;19915;-69
2021/11/10 12:39:33;;;;;;;;;;;14.80;49.50;;;;;;5092916;28;19908;-69
2021/11/10 12:42:01;;;;;;;;;;;14.80;49.30;;;;;;5093117;28;20272;-68
2021/11/10 12:44:30;;;;;;;;;;;14.80;49.30;;;;;;5092809;28;19930;-68
2021/11/10 12:46:56;;;;;;;;;;;14.90;49.20;;;;;;5092751;28;19908;-68
2021/11/10 12:49:22;;;;;;;;;;;14.90;48.90;;;;;;5091476;28;19908;-68
2021/11/10 12:52:06;;;;;;;;;;;15.00;49.10;;;;;;5092808;28;19961;-68
2021/11/10 12:54:32;;;;;;;;;;;15.00;49.00;;;;;;5091253;28;19912;-68
2021/11/10 12:56:58;;;;;;;;;;;15.00;49.00;;;;;;5094952;28;19930;-67
2021/11/10 12:59:32;;;;;;;;;;;15.10;48.80;;;;;;5096694;28;19908;-67
2021/11/10 13:01:59;;;;;;;;;;;15.10;48.80;;;;;;5096410;28;20449;-67
2021/11/10 13:04:25;;;;;;;;;;;15.20;48.90;;;;;;5096558;28;19908;-69
2021/11/10 13:06:54;;;;;;;;;;;15.30;48.90;;;;;;5095181;28;19934;-69
2021/11/10 13:11:59;;;;;;;;;;;15.40;48.70;;;;;;5096383;28;19908;-69
2021/11/10 13:14:25;;;;;;;;;;;15.40;48.50;;;;;;5087562;28;19920;-69
2021/11/10 13:17:03;;;;;;;;;;;15.50;48.50;;;;;;5095979;28;19912;-69
2021/11/10 13:19:49;;;;;;;;;;;15.50;48.40;;;;;;5094972;28;19904;-69
2021/11/10 13:22:19;;;;;;;;;;;15.60;48.40;;;;;;5096143;28;19908;-69
2021/11/10 13:24:46;;;;;;;;;;;15.60;48.20;;;;;;5087436;28;19912;-69
2021/11/10 13:27:11;;;;;;;;;;;15.60;48.20;;;;;;5085219;28;19905;-69
2021/11/10 13:29:42;;;;;;;;;;;15.70;48.10;;;;;;5082878;28;20336;-69
2021/11/10 13:32:12;;;;;;;;;;;15.70;48.00;;;;;;5077960;28;20255;-69
2021/11/10 13:34:47;;;;;;;;;;;15.70;47.90;;;;;;5074741;28;19974;-69
2021/11/10 13:37:14;;;;;;;;;;;15.70;47.70;;;;;;5075661;28;20405;-69
2021/11/10 13:39:40;;;;;;;;;;;15.60;47.60;;;;;;5073454;28;20408;-68
2021/11/10 13:42:13;;;;;;;;;;;15.60;47.50;;;;;;5086610;28;20350;-68
2021/11/10 13:44:38;;;;;;;;;;;15.60;47.30;;;;;;5095023;28;19908;-68
2021/11/10 13:47:07;;;;;;;;;;;15.60;47.20;;;;;;5094800;28;19946;-68
2021/11/10 13:49:34;;;;;;;;;;;15.50;47.20;;;;;;5094836;28;19908;-68
2021/11/10 13:52:02;;;;;;;;;;;15.50;47.40;;;;;;5094835;28;20328;-68
2021/11/10 13:54:30;;;;;;;;;;;15.50;47.40;;;;;;5089877;28;19965;-68
2021/11/10 13:57:14;;;;;;;;;;;15.40;47.50;;;;;;5080866;28;19965;-68
2021/11/10 13:59:41;;;;;;;;;;;15.40;47.40;;;;;;5093306;28;19908;-68
2021/11/10 14:02:07;;;;;;;;;;;15.40;47.50;;;;;;5094459;28;19908;-68
2021/11/10 14:04:34;;;;;;;;;;;15.40;47.60;;;;;;5094515;28;19909;-68
2021/11/10 14:07:13;;;;;;;;;;;15.30;47.70;;;;;;5087551;28;19921;-68
2021/11/10 14:09:59;;;;;;;;;;;15.30;47.70;;;;;;5074207;28;19962;-68
2021/11/10 14:12:29;;;;;;;;;;;15.30;47.80;;;;;;5066499;28;19966;-68
2021/11/10 14:15:04;;;;;;;;;;;15.30;47.80;;;;;;5074020;28;19974;-68
2021/11/10 14:17:30;;;;;;;;;;;15.20;47.70;;;;;;5082582;28;19978;-67
2021/11/10 14:20:02;;;;;;;;;;;15.20;47.70;;;;;;5094195;28;19912;-68
2021/11/10 14:22:29;;;;;;;;;;;15.20;47.80;;;;;;5094281;28;19995;-68
2021/11/10 14:24:56;;;;;;;;;;;15.20;47.90;;;;;;5090619;28;19981;-68
2021/11/10 14:27:22;;;;;;;;;;;15.10;47.90;;;;;;5068449;28;19912;-68
2021/11/10 14:29:52;;;;;;;;;;;15.10;48.00;;;;;;5090973;28;19908;-67